createdAt,value
2023-02-14T00:04:23.107Z,18.33
2023-02-14T00:09:25.361Z,21.13
2023-02-14T00:14:29.070Z,17.00
2023-02-14T00:19:31.533Z,18.17
2023-02-14T00:24:33.896Z,15.87
2023-02-14T00:29:37.262Z,15.80
2023-02-14T00:34:41.036Z,16.73
2023-02-14T00:39:43.216Z,20.57
2023-02-14T00:44:47.370Z,15.33
2023-02-14T00:49:50.081Z,20.03
2023-02-14T00:54:52.169Z,17.37
2023-02-14T00:59:55.392Z,19.43
2023-02-14T01:04:57.334Z,19.83
2023-02-14T01:09:59.464Z,17.27
2023-02-14T01:15:03.059Z,19.77
2023-02-14T01:20:07.096Z,19.60
2023-02-14T01:25:09.139Z,19.60
2023-02-14T01:30:16.559Z,16.83
2023-02-14T01:35:19.132Z,19.80
2023-02-14T01:40:21.679Z,19.87
2023-02-14T01:45:45.913Z,15.80
2023-02-14T01:50:51.550Z,16.07
2023-02-14T01:56:08.423Z,16.27
2023-02-14T02:01:13.596Z,18.87
2023-02-14T02:06:18.188Z,20.90
2023-02-14T02:11:26.331Z,19.10
2023-02-14T02:16:55.337Z,17.43
2023-02-14T02:22:52.137Z,18.80
2023-02-14T02:28:15.126Z,22.93
2023-02-14T02:33:52.822Z,17.67
2023-02-14T02:39:09.868Z,19.53
2023-02-14T02:44:19.110Z,21.73
2023-02-14T02:49:32.821Z,20.33
2023-02-14T02:54:43.135Z,16.40
2023-02-14T02:59:46.401Z,17.83
2023-02-14T03:04:53.912Z,19.30
2023-02-14T03:15:22.610Z,18.53
2023-02-14T03:20:44.165Z,24.40
2023-02-14T03:25:59.453Z,17.73
2023-02-14T03:31:20.939Z,17.77
2023-02-14T03:36:27.832Z,20.27
2023-02-14T03:42:00.596Z,21.80
2023-02-14T03:47:16.150Z,24.23
2023-02-14T03:52:19.745Z,23.20
2023-02-14T03:57:27.436Z,23.83
2023-02-14T04:02:33.969Z,21.87
2023-02-14T04:07:44.950Z,21.07
2023-02-14T04:12:48.789Z,23.47
2023-02-14T04:17:51.020Z,17.50
2023-02-14T04:22:52.847Z,24.70
2023-02-14T04:27:56.434Z,23.93
2023-02-14T04:32:58.569Z,21.80
2023-02-14T04:38:02.013Z,23.23
2023-02-14T04:43:05.613Z,22.47
2023-02-14T04:48:07.955Z,25.37
2023-02-14T04:53:10.376Z,25.20
2023-02-14T04:58:13.936Z,20.63
2023-02-14T05:03:16.397Z,21.40
2023-02-14T05:08:18.504Z,24.23
2023-02-14T05:13:21.904Z,23.67
2023-02-14T05:18:23.835Z,19.17
2023-02-14T05:23:26.067Z,25.37
2023-02-14T05:28:29.583Z,18.47
2023-02-14T05:33:31.365Z,23.00
2023-02-14T05:38:33.587Z,27.17
2023-02-14T05:43:36.991Z,21.63
2023-02-14T05:48:39.300Z,20.57
2023-02-14T05:53:41.421Z,21.53
2023-02-14T05:58:45.375Z,25.67
2023-02-14T06:03:47.135Z,22.17
2023-02-14T06:08:49.239Z,20.97
2023-02-14T06:13:52.791Z,21.67
2023-02-14T06:18:54.557Z,33.00
2023-02-14T06:23:56.725Z,22.23
2023-02-14T06:28:59.894Z,25.20
2023-02-14T06:34:01.973Z,26.00
2023-02-14T06:39:12.865Z,20.70
2023-02-14T06:44:16.104Z,24.57
2023-02-14T06:49:17.905Z,25.80
2023-02-14T06:54:19.841Z,23.50
2023-02-14T06:59:23.709Z,27.50
2023-02-14T07:04:25.573Z,23.77
2023-02-14T07:09:27.828Z,32.97
2023-02-14T07:14:31.368Z,24.37
2023-02-14T07:19:33.123Z,26.60
2023-02-14T07:24:35.191Z,32.10
2023-02-14T07:29:38.277Z,24.73
2023-02-14T07:34:40.247Z,23.07
2023-02-14T07:39:42.380Z,25.90
2023-02-14T07:44:45.741Z,22.03
2023-02-14T07:49:48.045Z,24.07
2023-02-14T07:54:50.573Z,19.93
2023-02-14T07:59:54.227Z,21.60
2023-02-14T08:04:56.615Z,27.83
2023-02-14T08:09:58.781Z,25.13
2023-02-14T08:15:02.346Z,24.43
2023-02-14T08:20:05.507Z,21.20
2023-02-14T08:25:07.985Z,21.40
2023-02-14T08:30:12.371Z,23.03
2023-02-14T08:35:14.593Z,24.03
2023-02-14T08:40:16.441Z,21.83
2023-02-14T08:45:19.922Z,24.57
2023-02-14T08:50:22.448Z,19.87
2023-02-14T08:55:24.267Z,22.10
2023-02-14T09:00:28.018Z,19.43
2023-02-14T09:05:30.306Z,22.10
2023-02-14T09:10:32.223Z,21.90
2023-02-14T09:15:35.540Z,21.67
2023-02-14T09:20:56.787Z,23.70
2023-02-14T09:26:01.749Z,20.03
2023-02-14T09:31:11.272Z,17.97
2023-02-14T09:36:21.176Z,21.03
2023-02-14T09:47:34.438Z,17.10
2023-02-14T09:52:37.391Z,16.47
2023-02-14T09:57:45.417Z,17.97
2023-02-14T10:03:01.558Z,18.97
2023-02-14T10:08:27.380Z,20.33
2023-02-14T10:13:35.619Z,19.23
2023-02-14T10:18:42.774Z,12.60
2023-02-14T10:23:51.196Z,12.20
2023-02-14T10:34:29.116Z,15.10
2023-02-14T10:40:04.520Z,14.83
2023-02-14T10:45:18.725Z,16.27
2023-02-14T10:50:30.656Z,13.97
2023-02-14T10:55:58.723Z,15.63
2023-02-14T11:01:03.914Z,15.20
2023-02-14T11:06:08.706Z,13.37
2023-02-14T11:11:24.923Z,13.97
2023-02-14T11:16:33.545Z,14.40
2023-02-14T11:21:40.253Z,13.57
2023-02-14T11:26:50.120Z,13.43
2023-02-14T11:31:52.572Z,15.73
2023-02-14T11:36:55.988Z,14.37
2023-02-14T11:42:06.112Z,13.90
2023-02-14T11:47:38.083Z,16.87
2023-02-14T11:53:01.288Z,12.83
2023-02-14T11:58:06.285Z,14.03
2023-02-14T12:03:19.471Z,14.37
2023-02-14T12:08:29.047Z,16.80
2023-02-14T12:13:32.373Z,13.30
2023-02-14T12:18:45.649Z,14.50
2023-02-14T12:23:58.904Z,14.50
2023-02-14T12:29:10.012Z,15.50
2023-02-14T12:34:13.254Z,14.30
2023-02-14T12:39:27.920Z,16.43
2023-02-14T12:44:39.069Z,19.60
2023-02-14T12:50:02.292Z,16.27
2023-02-14T12:55:24.347Z,15.47
2023-02-14T13:00:37.240Z,16.10
2023-02-14T13:05:49.925Z,17.00
2023-02-14T13:11:01.973Z,15.77
2023-02-14T13:16:13.486Z,15.33
2023-02-14T13:21:20.073Z,16.20
2023-02-14T13:26:29.088Z,18.83
2023-02-14T13:31:31.963Z,17.97
2023-02-14T13:36:35.062Z,16.80
2023-02-14T13:41:40.142Z,17.63
2023-02-14T13:46:53.104Z,17.53
2023-02-14T13:51:56.693Z,18.67
2023-02-14T13:57:03.656Z,16.17
2023-02-14T14:02:41.116Z,16.43
2023-02-14T14:07:43.125Z,15.77
2023-02-14T14:12:47.020Z,19.63
2023-02-14T14:18:28.248Z,17.17
2023-02-14T14:23:33.886Z,17.23
2023-02-14T14:28:38.130Z,12.97
2023-02-14T14:33:40.086Z,15.87
2023-02-14T14:38:47.667Z,14.67
2023-02-14T14:43:50.959Z,15.00
2023-02-14T14:48:55.416Z,16.50
2023-02-14T14:54:00.998Z,15.20
2023-02-14T14:59:28.613Z,12.77
2023-02-14T15:04:33.078Z,14.63
2023-02-14T15:09:35.045Z,16.37
2023-02-14T15:14:42.414Z,17.13
2023-02-14T15:19:47.635Z,16.47
2023-02-14T15:24:50.063Z,15.17
2023-02-14T15:29:59.456Z,13.73
2023-02-14T15:35:04.489Z,16.33
2023-02-14T15:40:08.981Z,17.20
2023-02-14T15:45:20.324Z,17.13
2023-02-14T15:50:24.838Z,16.13
2023-02-14T15:55:27.865Z,11.27
2023-02-14T16:00:32.603Z,14.33
2023-02-14T16:05:35.391Z,14.83
2023-02-14T16:10:39.371Z,16.10
2023-02-14T16:15:57.127Z,17.40
2023-02-14T16:21:11.403Z,15.57
2023-02-14T16:26:14.268Z,18.30
2023-02-14T16:31:18.803Z,30.37
2023-02-14T16:36:25.023Z,15.10
2023-02-14T16:41:29.349Z,12.77
2023-02-14T16:46:35.815Z,17.90
2023-02-14T16:51:39.855Z,14.70
2023-02-14T16:56:44.966Z,13.40
2023-02-14T17:01:49.169Z,21.27
2023-02-14T17:06:54.105Z,16.43
2023-02-14T17:12:01.274Z,17.17
2023-02-14T17:17:05.288Z,16.23
2023-02-14T17:22:07.331Z,17.67
2023-02-14T17:27:09.344Z,15.87
2023-02-14T17:32:12.895Z,14.17
2023-02-14T17:37:15.116Z,16.70
2023-02-14T17:42:17.427Z,13.50
2023-02-14T17:47:23.006Z,14.73
2023-02-14T17:52:24.987Z,14.93
2023-02-14T17:57:27.125Z,13.33
2023-02-14T18:02:30.601Z,13.43
2023-02-14T18:07:32.911Z,15.93
2023-02-14T18:12:34.593Z,16.93
2023-02-14T18:17:38.415Z,14.27
2023-02-14T18:22:41.015Z,17.40
2023-02-14T18:27:42.882Z,16.60
2023-02-14T18:32:45.985Z,16.63
2023-02-14T18:37:47.721Z,15.20
2023-02-14T18:42:49.721Z,15.50
2023-02-14T18:47:53.512Z,13.53
2023-02-14T18:52:56.028Z,12.30
2023-02-14T18:57:57.748Z,12.80
2023-02-14T19:03:01.758Z,12.53
2023-02-14T19:08:11.214Z,10.50
2023-02-14T19:13:13.035Z,12.73
2023-02-14T19:18:16.512Z,16.40
2023-02-14T19:23:27.847Z,11.90
2023-02-14T19:28:30.180Z,13.83
2023-02-14T19:33:38.034Z,13.37
2023-02-14T19:38:40.970Z,13.83
2023-02-14T19:43:42.955Z,14.27
2023-02-14T19:48:47.396Z,15.73
2023-02-14T19:53:50.367Z,16.23
2023-02-14T19:58:54.201Z,17.23
2023-02-14T20:09:26.541Z,18.13
2023-02-14T20:14:35.976Z,16.80
2023-02-14T20:19:44.775Z,12.87
2023-02-14T20:24:47.108Z,14.30
2023-02-14T20:29:49.799Z,15.27
2023-02-14T20:34:54.282Z,15.10
2023-02-14T20:39:57.020Z,17.10
2023-02-14T20:44:59.402Z,19.20
2023-02-14T20:50:03.537Z,18.63
2023-02-14T20:55:06.501Z,21.97
2023-02-14T21:00:12.314Z,17.47
2023-02-14T21:05:40.251Z,18.00
2023-02-14T21:10:42.568Z,14.97
2023-02-14T21:15:45.857Z,15.90
2023-02-14T21:20:50.348Z,17.13
2023-02-14T21:25:53.046Z,13.60
2023-02-14T21:31:03.583Z,16.67
2023-02-14T21:36:09.649Z,15.63
2023-02-14T21:41:13.732Z,15.80
2023-02-14T21:46:17.915Z,16.77
2023-02-14T21:51:22.263Z,11.47
2023-02-14T21:56:24.407Z,17.00
2023-02-14T22:01:28.334Z,16.77
2023-02-14T22:06:31.804Z,18.67
2023-02-14T22:11:34.750Z,16.23
2023-02-14T22:16:36.914Z,20.53
2023-02-14T22:21:41.006Z,14.43
2023-02-14T22:26:43.033Z,15.07
2023-02-14T22:31:45.037Z,15.63
2023-02-14T22:36:48.584Z,22.37
2023-02-14T22:41:50.384Z,20.03
2023-02-14T22:46:52.564Z,18.17
2023-02-14T22:52:01.983Z,19.83
2023-02-14T22:57:04.094Z,16.37
2023-02-14T23:02:06.673Z,15.97
2023-02-14T23:07:12.036Z,21.23
2023-02-14T23:12:14.086Z,18.67
2023-02-14T23:17:16.542Z,15.80
2023-02-14T23:22:21.897Z,14.07
2023-02-14T23:27:26.569Z,15.40
2023-02-14T23:32:31.796Z,18.83
2023-02-14T23:37:46.807Z,19.07
2023-02-14T23:42:54.688Z,15.73
2023-02-14T23:48:04.965Z,16.27
2023-02-14T23:53:08.597Z,17.87
2023-02-14T23:58:10.921Z,14.63
